TAF Text Data
IDs:
Format:
Raw Decoded Include METAR

Data at: 1802 UTC 31 Jul 2021

Region: TOP
KATL 311742Z 3118/0124 30008KT P6SM VCSH SCT040 SCT250
  FM010000 30007KT P6SM SCT250
  FM011500 30009KT P6SM FEW030 SCT250
  FM011700 28010KT P6SM FEW050
  PROB30 0117/0123 4SM TSRA BR BKN050CB


TAF KBOS 311735Z 3118/0124 27010G17KT P6SM FEW070
  FM010300 25008KT P6SM FEW080
  FM011400 14010KT P6SM BKN040


KBWI 311729Z 3118/0124 18006KT P6SM FEW050 SCT150
  FM312100 23006KT P6SM FEW050 SCT150
  FM010000 16005KT P6SM FEW040 BKN120
  FM010700 16006KT 6SM -SHRA SCT015 BKN050 OVC130
  FM011100 16006KT 5SM BR SCT008 BKN015 OVC130
  FM011800 23008KT P6SM SCT025 BKN050


KCLE 311729Z 3118/0124 VRB04KT P6SM SCT040
  FM311900 32007KT P6SM SCT045
  FM010200 19006KT P6SM SCT120
  FM011500 27007KT 6SM -SHRA BKN035
  FM011800 31010KT P6SM BKN035


KCLT 311735Z 3118/0124 29004KT P6SM FEW045 SCT250
  FM010000 19003KT P6SM SCT250
  FM010900 30005KT P6SM FEW100 SCT250
  FM011700 28007KT P6SM SCT045 BKN200
  PROB30 0118/0124 4SM TSRA BR BKN050CB


KCVG 311743Z 3118/0124 26005KT P6SM VCSH OVC100
  TEMPO 3119/3121 -SHRA
  FM312200 26004KT P6SM BKN060
  FM010300 29003KT P6SM BKN090
  FM010900 28003KT P6SM SCT250
  FM011600 29008KT P6SM SCT040 SCT100
  FM012200 33010KT P6SM FEW050 SCT100


KDCA 311729Z 3118/0124 18006KT P6SM FEW050 SCT150
  FM010000 17005KT P6SM FEW040 BKN120
  FM010700 16006KT 6SM -SHRA SCT015 BKN050 OVC130
  FM011100 16006KT 5SM BR SCT008 BKN015 OVC130
  FM011800 23008KT P6SM SCT025 BKN050


KDEN 311738Z 3118/0124 03008KT P6SM VCSH SCT025 BKN035
  FM312000 03010KT P6SM VCSH SCT030 BKN080
  TEMPO 3120/3124 TSRA BKN030CB
  FM010100 04008KT P6SM VCSH SCT030 BKN060
  FM010300 18008KT P6SM SCT020 BKN070
  FM011200 21007KT P6SM SCT020 BKN070
  FM011600 15007KT P6SM SCT030 SCT070


KDFW 311721Z 3118/0124 19008KT P6SM SCT060 SCT250
  FM011500 25006KT P6SM VCSH SCT060 BKN250
  FM012200 02010KT P6SM VCTS BKN070CB


KDTW 311720Z 3118/0124 23008KT P6SM SCT050 BKN180
  FM010000 23006KT P6SM SCT120 BKN200
  FM011000 27007KT P6SM SCT050 BKN100
  PROB30 0112/0115 4SM SHRA BKN025 OVC080
  FM011500 31010KT P6SM BKN040


KEWR 311434Z 3115/0118 29008KT P6SM FEW200
  FM311800 27009KT P6SM FEW060
  FM010000 26005KT P6SM SKC
  FM010300 VRB04KT P6SM FEW250
  FM011400 17007KT P6SM SCT150 BKN250


TAF KFLL 311734Z 3118/0124 14010KT P6SM VCTS SCT030CB
  FM010000 VRB05KT P6SM FEW030 SCT250
  FM011600 15008KT P6SM VCTS FEW030CB SCT050
  FM012200 15008KT P6SM FEW035 SCT100


KIAD 311729Z 3118/0124 20006KT P6SM FEW050 SCT150
  FM312000 23006KT P6SM FEW050 SCT150
  FM010000 17003KT P6SM FEW040 BKN120
  FM010600 16005KT 6SM -SHRA SCT015 BKN050 OVC130
  FM011000 16005KT 5SM BR SCT008 BKN015 OVC130
  FM011800 23008KT P6SM SCT025 BKN050


KIAH 311726Z 3118/0124 24008KT P6SM BKN035
  FM312000 19008KT P6SM VCTS BKN040CB BKN250
  FM010000 17005KT P6SM FEW040 SCT250
  FM010700 VRB03KT P6SM FEW015 SCT250
  FM011900 21008KT P6SM VCTS SCT050CB SCT250


TAF KJFK 311720Z 3118/0124 23013KT P6SM FEW060
  FM312100 20010KT P6SM FEW060
  FM010100 19006KT P6SM SKC
  FM010500 VRB04KT P6SM FEW250
  FM011400 15010KT P6SM SCT150 BKN250
  FM012200 15010KT P6SM BKN025


TAF KLAS 311722Z 3118/0124 08007KT P6SM SCT100 BKN250
  FM312000 21008KT P6SM VCTS SCT100CB BKN200
  TEMPO 3121/0101 VRB15G25KT TSRA SCT080CB BKN100
  FM010100 30010KT P6SM SCT100 BKN200
  FM010300 19005KT P6SM FEW100 SCT200
  FM010700 VRB05KT P6SM FEW100 SCT250
  FM012000 21008KT P6SM VCTS SCT100CB


KLAX 311740Z 3118/0124 26008KT 2SM BR OVC006
  FM311930 26010KT 5SM HZ SCT008
  FM312100 26014KT P6SM SCT010
  FM010400 25008KT P6SM BKN008
  FM010800 VRB03KT P6SM SCT008
  FM011200 25006KT 1SM BR OVC004
  FM011600 21005KT 3SM BR OVC006
  FM011900 26010KT 5SM HZ SCT008


KLGA 311434Z 3115/0118 32007KT P6SM FEW200
  FM311800 29009KT P6SM FEW060
  FM312100 24008KT P6SM FEW060
  FM010100 19005KT P6SM SKC
  FM010500 VRB04KT P6SM FEW250
  FM011400 15007KT P6SM SCT150 BKN250


KMCO 311742Z 3118/0124 23010KT P6SM SCT040 SCT250
  FM312000 24012KT P6SM VCTS SCT030CB SCT250
  FM010000 22005KT P6SM FEW015 BKN250
  FM011400 24008KT P6SM FEW015 SCT120 SCT250
  FM012000 24009KT P6SM VCTS SCT035CB SCT120 BKN250


KMDW 311732Z 3118/0124 28008KT 6SM HZ FEW030 SCT040
  FM010300 27007KT 6SM HZ SCT040 BKN100
  FM010800 35008KT P6SM SCT040 SCT100
  FM011300 02010G16KT P6SM SCT025
  FM012000 04013KT P6SM SCT040


KMEM 311733Z 3118/0124 29007KT P6SM SCT050 SCT250
  FM312200 24007KT P6SM VCTS SCT050CB SCT250
  FM010200 29005KT P6SM BKN250
  FM011000 02006KT P6SM VCTS SCT050CB BKN100
  FM011400 03006KT P6SM BKN040
  FM011900 35007KT P6SM BKN100


KMIA 311458Z 3115/0118 VRB04KT P6SM FEW030 SCT050
  FM311700 15009KT P6SM VCTS FEW030CB SCT050
  FM010000 VRB04KT P6SM FEW030
  FM011700 15009KT P6SM VCTS FEW025CB SCT080


KMSP 311721Z 3118/0124 32012G16KT 2SM FU FEW040
  FM311930 32012G18KT 5SM FU SCT250
  FM010200 35006KT 6SM FU SKC
  FM011700 01010KT 5SM FU FEW250


KORD 311732Z 3118/0124 28008KT 6SM HZ FEW030 SCT040
  FM010300 27007KT 6SM HZ SCT040 BKN100
  FM010800 35008KT P6SM SCT040 SCT100
  FM011300 02010G16KT P6SM SCT025
  FM012000 04013KT P6SM SCT040


KPDX 311735Z 3118/0118 29006KT P6SM SCT120 BKN250
  FM312200 33010KT P6SM VCSH BKN100 BKN250
  FM010200 32007KT P6SM VCSH BKN100 BKN250
  FM010800 29005KT P6SM SCT100 BKN250


KPHL 311724Z 3118/0124 25005KT P6SM FEW250
  FM011000 14004KT P6SM BKN100
  FM011200 17005KT P6SM BKN035
  FM011400 16005KT 6SM -SHRA BKN025


KPHX 311720Z 3118/0124 VRB04KT P6SM SCT100 BKN180
  FM311900 27004KT P6SM FEW090 SCT250
  FM010700 09006KT P6SM FEW150 FEW250
  FM011900 27005KT P6SM FEW180 FEW250


KPIT 311120Z 3112/0118 33005KT P6SM BKN200
  FM311700 29005KT P6SM SCT050
  FM010000 20002KT P6SM FEW250
  FM011400 22006KT P6SM BKN050


KSAN 311731Z 3118/0124 30006KT P6SM SCT009 SCT150
  FM312000 29012KT P6SM SCT150
  FM010300 31006KT P6SM FEW009
  FM011000 VRB04KT P6SM BKN007
  FM011300 VRB04KT 4SM BR BKN004
  FM011600 VRB04KT P6SM SCT007
  FM011900 30011KT P6SM SKC


KSEA 311720Z 3118/0124 VRB04KT P6SM BKN120
  FM312100 34007KT P6SM VCSH BKN090
  FM010900 VRB03KT P6SM BKN120


KSFO 311739Z 3118/0124 VRB06KT P6SM FEW008
  FM311900 31012KT P6SM FEW008
  FM312200 30017KT P6SM SKC
  FM010600 29008KT P6SM FEW008
  FM011300 VRB04KT P6SM FEW007 BKN012
  FM011600 VRB04KT P6SM FEW009
  FM011900 32012KT P6SM FEW007
  FM012200 30017KT P6SM FEW008


KSLC 311723Z 3118/0124 32008KT P6SM VCSH SCT100 SCT120
  FM312000 32009KT P6SM VCTS SCT090CB BKN120
  FM010300 16010KT P6SM SCT100 BKN120


TAF KSTL 311721Z 3118/0124 13009KT P6SM VCSH SCT025 BKN050
  FM311900 13009KT P6SM OVC015
  FM010100 01005KT P6SM BKN019
  FM010800 03004KT P6SM BKN040


KTPA 311739Z 3118/0124 23008KT P6SM VCSH SCT035 SCT080 BKN250
  FM312000 25009KT P6SM SCT040 SCT250
  FM010100 23006KT P6SM FEW025 SCT250
  FM011300 24009KT P6SM VCTS SCT030CB BKN080